高雄終端管制區 - 高雄雷達席

METAR RCKH 211030Z 18013G23KT 150V210 CAVOK 27/19 Q1014 NOSIG RMK A2997(U)=

站台狀態:Offline
最後更新:2024-02-21 18:30:02